aviador You're here:

EPWR Decoded Metar

WROCLAW in POLAND
Report Time2018-04-26 01:30:00
UTC Time2018-04-26 01:52:48
Flight Rules vfr VFR
WindVRB at 02 kt
Visibility9999 m
Phenomena:N/A
Clouds:N/A
Expected CloudBase > 400 ft AGL from Temp-Dew spread
CeilingNone
Temp09°C (ISA -5)
Dew Point08°C (94% RH)
AAT7.8°C
QNH1012 hPa
Density Alt-46 ft
Elevation397 ft
Report Wrong Elevation
Raw Report
METAR EPWR 260130Z VRB02KT CAVOK 09/08 Q1012=

Extra information for EPWR:More info

Metar Taf Metar & Taf Last 4 Metars F.Rules Stats Wind Profile Meteogram Temp Stats Airport Information Weather charts Add Link Nearby VenuesMetar ALERT Operation Metar Decoded Social comments